createdAt,value
2022-12-26T00:01:53.584Z,52.80
2022-12-26T00:04:51.844Z,65.80
2022-12-26T00:07:09.924Z,60.22
2022-12-26T00:09:38.064Z,61.28
2022-12-26T00:12:06.141Z,60.03
2022-12-26T00:14:34.314Z,60.45
2022-12-26T00:17:02.155Z,63.83
2022-12-26T00:19:30.303Z,61.53
2022-12-26T00:21:58.117Z,71.40
2022-12-26T00:24:26.297Z,57.95
2022-12-26T00:26:54.076Z,60.47
2022-12-26T00:29:23.004Z,63.65
2022-12-26T00:31:50.924Z,61.80
2022-12-26T00:34:20.131Z,58.03
2022-12-26T00:36:50.124Z,64.05
2022-12-26T00:39:18.227Z,59.22
2022-12-26T00:41:45.972Z,71.63
2022-12-26T00:44:14.023Z,59.83
2022-12-26T00:46:41.921Z,65.03
2022-12-26T00:49:12.177Z,63.83
2022-12-26T00:51:40.172Z,63.92
2022-12-26T00:54:08.298Z,67.43
2022-12-26T00:56:36.014Z,69.18
2022-12-26T00:59:04.119Z,71.15
2022-12-26T01:01:32.720Z,63.80
2022-12-26T01:04:02.248Z,60.30
2022-12-26T01:06:31.024Z,70.80
2022-12-26T01:08:59.935Z,67.13
2022-12-26T01:11:43.106Z,59.88
2022-12-26T01:14:18.507Z,62.22
2022-12-26T01:16:47.827Z,63.78
2022-12-26T01:19:17.264Z,72.78
2022-12-26T01:21:45.066Z,64.78
2022-12-26T01:24:14.614Z,62.08
2022-12-26T01:26:42.465Z,62.53
2022-12-26T01:29:10.661Z,69.82
2022-12-26T01:31:38.537Z,65.63
2022-12-26T01:34:06.668Z,72.68
2022-12-26T01:36:34.546Z,69.35
2022-12-26T01:39:02.637Z,67.38
2022-12-26T01:41:32.458Z,77.30
2022-12-26T01:44:06.580Z,73.32
2022-12-26T01:49:52.722Z,73.03
2022-12-26T01:52:44.883Z,66.10
2022-12-26T01:55:17.842Z,76.17
2022-12-26T01:57:50.446Z,69.53
2022-12-26T02:00:18.753Z,77.63
2022-12-26T02:03:05.497Z,65.28
2022-12-26T02:05:34.413Z,73.13
2022-12-26T02:08:26.918Z,66.30
2022-12-26T02:11:05.419Z,64.45
2022-12-26T02:13:36.117Z,69.47
2022-12-26T02:16:07.152Z,60.35
2022-12-26T02:18:35.356Z,64.50
2022-12-26T02:21:28.627Z,58.22
2022-12-26T02:24:16.076Z,66.78
2022-12-26T02:27:02.705Z,62.80
2022-12-26T02:30:05.312Z,58.55
2022-12-26T02:35:17.478Z,52.58
2022-12-26T02:38:08.754Z,44.70
2022-12-26T02:40:49.335Z,38.05
2022-12-26T02:43:33.971Z,40.63
2022-12-26T02:46:37.710Z,45.42
2022-12-26T02:49:21.966Z,40.35
2022-12-26T02:52:34.637Z,33.78
2022-12-26T02:55:33.899Z,32.07
2022-12-26T02:58:40.589Z,26.83
2022-12-26T03:01:49.710Z,23.85
2022-12-26T03:04:41.539Z,25.23
2022-12-26T03:07:42.597Z,25.45
2022-12-26T03:10:38.742Z,21.58
2022-12-26T03:13:17.362Z,22.92
2022-12-26T03:16:09.666Z,21.80
2022-12-26T03:18:57.984Z,23.13
2022-12-26T03:21:34.184Z,23.13
2022-12-26T03:24:02.452Z,20.08
2022-12-26T03:26:41.399Z,22.73
2022-12-26T03:29:32.135Z,20.05
2022-12-26T03:32:03.434Z,24.75
2022-12-26T03:34:31.724Z,21.52
2022-12-26T03:37:50.343Z,19.90
2022-12-26T03:41:22.464Z,24.58
2022-12-26T03:44:45.163Z,26.55
2022-12-26T03:47:48.254Z,19.08
2022-12-26T03:50:50.373Z,23.27
2022-12-26T03:53:44.282Z,21.38
2022-12-26T03:56:40.702Z,19.98
2022-12-26T03:59:35.235Z,26.63
2022-12-26T04:02:26.698Z,25.92
2022-12-26T04:05:16.263Z,25.15
2022-12-26T04:08:18.579Z,23.35
2022-12-26T04:11:12.215Z,26.60
2022-12-26T04:14:10.999Z,23.17
2022-12-26T04:17:19.742Z,24.17
2022-12-26T04:20:02.830Z,25.38
2022-12-26T04:23:04.027Z,22.23
2022-12-26T04:26:18.485Z,24.25
2022-12-26T04:29:06.554Z,28.48
2022-12-26T04:32:01.614Z,26.92
2022-12-26T04:35:33.655Z,25.10
2022-12-26T04:38:22.295Z,18.27
2022-12-26T04:41:14.825Z,21.02
2022-12-26T04:44:03.205Z,21.70
2022-12-26T04:46:35.260Z,21.65
2022-12-26T04:49:25.447Z,28.52
2022-12-26T04:51:56.623Z,20.55
2022-12-26T04:54:25.382Z,25.10
2022-12-26T04:56:55.124Z,21.73
2022-12-26T04:59:24.177Z,20.13
2022-12-26T05:02:12.157Z,21.70
2022-12-26T05:04:58.925Z,21.60
2022-12-26T05:07:52.336Z,27.92
2022-12-26T05:10:23.017Z,24.63
2022-12-26T05:12:51.835Z,33.65
2022-12-26T05:15:20.153Z,58.67
2022-12-26T05:18:06.965Z,58.80
2022-12-26T05:20:53.353Z,73.07
2022-12-26T05:23:44.033Z,76.43
2022-12-26T05:26:39.361Z,79.15
2022-12-26T05:29:07.663Z,75.28
2022-12-26T05:31:37.121Z,76.13
2022-12-26T05:34:07.904Z,76.22
2022-12-26T05:36:42.600Z,90.93
2022-12-26T05:39:10.777Z,86.32
2022-12-26T05:41:39.130Z,99.25
2022-12-26T05:44:08.290Z,96.75
2022-12-26T05:46:36.817Z,111.53
2022-12-26T05:49:06.126Z,109.00
2022-12-26T05:51:35.259Z,101.90
2022-12-26T05:54:03.953Z,104.60
2022-12-26T05:56:31.634Z,99.25
2022-12-26T05:59:01.419Z,113.90
2022-12-26T06:01:30.570Z,115.85
2022-12-26T06:04:00.844Z,120.70
2022-12-26T06:06:29.254Z,117.53
2022-12-26T06:08:57.651Z,127.65
2022-12-26T06:11:26.974Z,125.93
2022-12-26T06:13:56.018Z,122.60
2022-12-26T06:16:24.180Z,127.60
2022-12-26T06:18:55.475Z,105.80
2022-12-26T06:21:24.145Z,117.70
2022-12-26T06:23:52.364Z,118.32
2022-12-26T06:26:20.233Z,123.93
2022-12-26T06:28:48.579Z,113.82
2022-12-26T06:31:21.092Z,122.65
2022-12-26T06:33:58.447Z,121.13
2022-12-26T06:36:27.830Z,114.20
2022-12-26T06:38:57.892Z,120.13
2022-12-26T06:41:26.035Z,125.82
2022-12-26T06:43:56.165Z,125.10
2022-12-26T06:46:25.475Z,122.88
2022-12-26T06:48:53.816Z,121.68
2022-12-26T06:51:24.666Z,124.80
2022-12-26T06:53:53.557Z,113.50
2022-12-26T06:56:24.908Z,117.05
2022-12-26T06:59:04.851Z,123.75
2022-12-26T07:01:35.062Z,119.68
2022-12-26T07:04:04.826Z,120.50
2022-12-26T07:06:38.236Z,119.90
2022-12-26T07:09:08.189Z,120.93
2022-12-26T07:11:39.393Z,118.30
2022-12-26T07:14:08.838Z,122.22
2022-12-26T07:16:39.312Z,126.68
2022-12-26T07:19:07.896Z,121.05
2022-12-26T07:21:40.480Z,107.60
2022-12-26T07:24:22.618Z,123.22
2022-12-26T07:26:50.802Z,118.45
2022-12-26T07:29:20.206Z,117.18
2022-12-26T07:31:48.357Z,120.82
2022-12-26T07:34:16.565Z,114.88
2022-12-26T07:36:44.494Z,117.30
2022-12-26T07:39:14.581Z,118.15
2022-12-26T07:41:57.695Z,126.30
2022-12-26T07:44:29.354Z,126.03
2022-12-26T07:46:57.591Z,112.47
2022-12-26T07:49:26.618Z,117.93
2022-12-26T07:51:54.491Z,106.53
2022-12-26T07:54:22.837Z,117.43
2022-12-26T07:56:50.755Z,117.85
2022-12-26T07:59:19.007Z,112.25
2022-12-26T08:01:47.078Z,112.68
2022-12-26T08:04:16.632Z,106.20
2022-12-26T08:06:46.644Z,108.70
2022-12-26T08:09:16.262Z,113.55
2022-12-26T08:11:45.217Z,96.93
2022-12-26T08:14:16.976Z,102.25
2022-12-26T08:16:51.201Z,101.53
2022-12-26T08:19:21.350Z,106.55
2022-12-26T08:21:49.926Z,110.68
2022-12-26T08:24:18.125Z,98.30
2022-12-26T08:26:46.107Z,91.60
2022-12-26T08:29:15.530Z,91.20
2022-12-26T08:31:43.383Z,102.50
2022-12-26T08:34:11.787Z,98.50
2022-12-26T08:36:39.837Z,93.82
2022-12-26T08:39:08.695Z,101.97
2022-12-26T08:41:36.608Z,96.57
2022-12-26T08:46:52.867Z,92.05
2022-12-26T08:49:21.067Z,99.30
2022-12-26T08:51:49.457Z,92.00
2022-12-26T08:54:17.689Z,84.88
2022-12-26T08:56:45.548Z,84.47
2022-12-26T08:59:13.719Z,82.72
2022-12-26T09:01:41.720Z,85.60
2022-12-26T09:04:10.175Z,83.57
2022-12-26T09:06:39.932Z,72.80
2022-12-26T09:09:11.699Z,88.70
2022-12-26T09:11:41.312Z,81.13
2022-12-26T09:14:11.114Z,84.45
2022-12-26T09:16:49.246Z,81.53
2022-12-26T09:19:20.573Z,84.85
2022-12-26T09:22:10.500Z,88.55
2022-12-26T09:24:38.715Z,83.82
2022-12-26T09:27:06.787Z,91.13
2022-12-26T09:29:35.338Z,98.65
2022-12-26T09:32:03.145Z,104.85
2022-12-26T09:34:31.295Z,105.25
2022-12-26T09:36:59.145Z,112.35
2022-12-26T09:39:27.396Z,100.35
2022-12-26T09:42:32.395Z,107.22
2022-12-26T09:45:00.654Z,129.30
2022-12-26T09:47:33.080Z,98.35
2022-12-26T09:50:09.974Z,99.35
2022-12-26T09:52:58.472Z,109.88
2022-12-26T09:55:48.104Z,110.88
2022-12-26T09:58:21.456Z,112.70
2022-12-26T10:00:58.067Z,90.28
2022-12-26T10:03:26.138Z,90.80
2022-12-26T10:06:05.699Z,82.68
2022-12-26T10:08:53.535Z,67.32
2022-12-26T10:11:45.956Z,74.28
2022-12-26T10:14:47.766Z,71.43
2022-12-26T10:17:37.169Z,69.57
2022-12-26T10:20:08.178Z,76.32
2022-12-26T10:22:37.370Z,84.45
2022-12-26T10:25:34.188Z,78.20
2022-12-26T10:28:06.621Z,91.47
2022-12-26T10:30:39.860Z,96.57
2022-12-26T10:33:24.977Z,100.10
2022-12-26T10:35:53.284Z,102.47
2022-12-26T10:38:53.349Z,97.25
2022-12-26T10:41:27.874Z,100.80
2022-12-26T10:43:56.045Z,104.47
2022-12-26T10:46:54.935Z,101.40
2022-12-26T10:49:26.274Z,99.97
2022-12-26T10:51:57.656Z,110.95
2022-12-26T10:54:29.730Z,112.65
2022-12-26T10:56:59.416Z,119.18
2022-12-26T10:59:38.952Z,175.95
2022-12-26T11:02:28.518Z,109.93
2022-12-26T11:05:18.457Z,111.07
2022-12-26T11:08:14.745Z,101.32
2022-12-26T11:11:00.775Z,109.75
2022-12-26T11:13:35.162Z,105.82
2022-12-26T11:16:03.753Z,113.82
2022-12-26T11:18:31.653Z,105.45
2022-12-26T11:21:17.985Z,105.63
2022-12-26T11:23:47.365Z,98.05
2022-12-26T11:26:32.371Z,95.82
2022-12-26T11:29:25.260Z,93.20
2022-12-26T11:32:02.974Z,106.43
2022-12-26T11:34:47.798Z,97.30
2022-12-26T11:37:32.565Z,88.80
2022-12-26T11:40:01.938Z,93.45
2022-12-26T11:42:30.724Z,95.85
2022-12-26T11:45:04.074Z,100.45
2022-12-26T11:47:32.415Z,102.45
2022-12-26T11:50:04.652Z,115.45
2022-12-26T11:52:47.448Z,98.32
2022-12-26T11:55:33.725Z,125.40
2022-12-26T11:58:16.197Z,92.93
2022-12-26T12:01:07.523Z,95.93
2022-12-26T12:03:50.447Z,99.25
2022-12-26T12:06:44.146Z,95.13
2022-12-26T12:09:30.676Z,102.18
2022-12-26T12:12:23.164Z,94.68
2022-12-26T12:15:13.177Z,94.47
2022-12-26T12:17:43.729Z,103.82
2022-12-26T12:20:39.124Z,96.85
2022-12-26T12:23:37.755Z,119.47
2022-12-26T12:26:18.591Z,107.78
2022-12-26T12:29:14.307Z,105.63
2022-12-26T12:32:17.264Z,106.85
2022-12-26T12:34:47.687Z,126.07
2022-12-26T12:37:18.684Z,100.07
2022-12-26T12:40:24.124Z,108.28
2022-12-26T12:43:08.326Z,128.05
2022-12-26T12:45:56.544Z,113.43
2022-12-26T12:48:47.938Z,104.63
2022-12-26T12:51:44.405Z,119.68
2022-12-26T12:54:40.689Z,141.52
2022-12-26T12:57:50.665Z,106.88
2022-12-26T13:00:25.296Z,95.90
2022-12-26T13:03:22.522Z,96.20
2022-12-26T13:06:05.124Z,103.30
2022-12-26T13:08:42.139Z,141.05
2022-12-26T13:11:33.685Z,94.53
2022-12-26T13:14:07.663Z,84.05
2022-12-26T13:16:50.373Z,108.57
2022-12-26T13:19:48.695Z,96.80
2022-12-26T13:22:51.168Z,106.30
2022-12-26T13:25:20.546Z,120.53
2022-12-26T13:27:51.768Z,114.75
2022-12-26T13:30:19.814Z,108.30
2022-12-26T13:32:49.055Z,106.32
2022-12-26T13:35:50.755Z,110.85
2022-12-26T13:38:21.044Z,108.13
2022-12-26T13:41:20.864Z,113.43
2022-12-26T13:44:18.318Z,98.82
2022-12-26T13:46:46.059Z,116.57
2022-12-26T13:49:43.395Z,108.72
2022-12-26T13:52:11.249Z,107.72
2022-12-26T13:54:52.601Z,106.57
2022-12-26T13:57:45.120Z,107.60
2022-12-26T14:00:23.819Z,105.30
2022-12-26T14:03:19.047Z,104.65
2022-12-26T14:05:52.534Z,118.32
2022-12-26T14:08:38.580Z,110.63
2022-12-26T14:11:29.214Z,107.38
2022-12-26T14:14:10.083Z,104.93
2022-12-26T14:16:57.712Z,110.45
2022-12-26T14:19:49.870Z,121.80
2022-12-26T14:22:34.254Z,106.00
2022-12-26T14:25:20.664Z,102.07
2022-12-26T14:28:10.946Z,105.38
2022-12-26T14:31:12.637Z,103.97
2022-12-26T14:33:49.510Z,98.40
2022-12-26T14:37:07.204Z,98.70
2022-12-26T14:39:44.292Z,96.22
2022-12-26T14:42:42.477Z,96.20
2022-12-26T14:45:30.935Z,100.47
2022-12-26T14:47:59.257Z,99.70
2022-12-26T14:50:33.103Z,100.75
2022-12-26T14:53:28.251Z,103.32
2022-12-26T14:56:04.976Z,99.60
2022-12-26T14:58:43.951Z,106.10
2022-12-26T15:01:13.378Z,110.38
2022-12-26T15:03:56.341Z,101.00
2022-12-26T15:06:49.077Z,97.70
2022-12-26T15:09:40.508Z,104.03
2022-12-26T15:12:20.567Z,100.47
2022-12-26T15:15:06.695Z,96.10
2022-12-26T15:17:52.086Z,94.70
2022-12-26T15:20:53.643Z,101.75
2022-12-26T15:23:30.924Z,93.20
2022-12-26T15:26:07.647Z,101.90
2022-12-26T15:28:41.856Z,103.68
2022-12-26T15:34:00.065Z,112.10
2022-12-26T15:36:49.211Z,106.65
2022-12-26T15:39:30.533Z,110.22
2022-12-26T15:42:30.755Z,108.63
2022-12-26T15:45:21.741Z,92.88
2022-12-26T15:48:11.292Z,101.75
2022-12-26T15:51:01.145Z,100.05
2022-12-26T15:54:06.233Z,98.95
2022-12-26T15:57:01.908Z,98.45
2022-12-26T15:59:32.436Z,87.60
2022-12-26T16:02:01.108Z,99.50
2022-12-26T16:04:52.919Z,97.45
2022-12-26T16:07:40.978Z,102.20
2022-12-26T16:10:26.954Z,106.70
2022-12-26T16:13:07.577Z,92.13
2022-12-26T16:15:49.401Z,102.47
2022-12-26T16:18:23.384Z,86.93
2022-12-26T16:21:12.365Z,99.95
2022-12-26T16:23:43.173Z,97.53
2022-12-26T16:26:25.542Z,91.75
2022-12-26T16:28:55.249Z,88.18
2022-12-26T16:31:31.360Z,94.85
2022-12-26T16:34:00.425Z,91.72
2022-12-26T16:36:32.742Z,99.93
2022-12-26T16:39:00.872Z,98.00
2022-12-26T16:41:31.763Z,104.60
2022-12-26T16:44:35.698Z,102.00
2022-12-26T16:47:12.200Z,102.50
2022-12-26T16:49:43.731Z,89.78
2022-12-26T16:52:47.395Z,92.88
2022-12-26T16:55:52.024Z,93.78
2022-12-26T16:58:22.079Z,96.28
2022-12-26T17:00:58.999Z,98.60
2022-12-26T17:03:34.881Z,93.65
2022-12-26T17:06:22.163Z,103.15
2022-12-26T17:08:52.031Z,101.43
2022-12-26T17:11:30.670Z,101.43
2022-12-26T17:14:00.344Z,90.18
2022-12-26T17:16:31.444Z,103.82
2022-12-26T17:19:20.102Z,102.50
2022-12-26T17:22:40.337Z,107.10
2022-12-26T17:25:26.767Z,93.55
2022-12-26T17:28:10.118Z,96.45
2022-12-26T17:30:53.517Z,96.47
2022-12-26T17:33:23.541Z,99.60
2022-12-26T17:39:25.840Z,99.95
2022-12-26T17:42:02.574Z,102.50
2022-12-26T17:44:45.512Z,104.47
2022-12-26T17:47:31.839Z,105.03
2022-12-26T17:50:00.066Z,96.90
2022-12-26T17:52:29.578Z,217.68
2022-12-26T17:54:58.992Z,98.72
2022-12-26T17:57:29.341Z,94.97
2022-12-26T17:59:58.368Z,112.50
2022-12-26T18:02:26.448Z,98.50
2022-12-26T18:04:54.644Z,95.65
2022-12-26T18:07:31.477Z,102.57
2022-12-26T18:10:01.605Z,99.57
2022-12-26T18:12:29.549Z,96.18
2022-12-26T18:15:02.012Z,109.05
2022-12-26T18:17:33.413Z,102.68
2022-12-26T18:20:03.557Z,111.40
2022-12-26T18:22:31.440Z,106.82
2022-12-26T18:24:59.607Z,104.20
2022-12-26T18:27:32.795Z,107.22
2022-12-26T18:30:01.015Z,102.53
2022-12-26T18:32:31.725Z,96.95
2022-12-26T18:35:00.181Z,98.50
2022-12-26T18:37:30.109Z,112.78
2022-12-26T18:39:58.406Z,106.07
2022-12-26T18:42:27.460Z,100.53
2022-12-26T18:44:55.579Z,106.78
2022-12-26T18:47:23.603Z,99.63
2022-12-26T18:49:51.802Z,103.15
2022-12-26T18:52:19.712Z,97.78
2022-12-26T18:54:47.822Z,97.43
2022-12-26T18:57:19.731Z,90.50
2022-12-26T18:59:48.543Z,100.05
2022-12-26T19:02:19.027Z,96.15
2022-12-26T19:04:48.817Z,91.55
2022-12-26T19:07:18.368Z,105.55
2022-12-26T19:09:50.759Z,98.53
2022-12-26T19:12:18.721Z,97.40
2022-12-26T19:14:48.759Z,105.95
2022-12-26T19:17:17.574Z,103.55
2022-12-26T19:19:45.715Z,98.28
2022-12-26T19:22:13.428Z,98.07
2022-12-26T19:24:42.615Z,100.82
2022-12-26T19:27:10.372Z,92.90
2022-12-26T19:29:38.542Z,101.47
2022-12-26T19:32:06.343Z,114.72
2022-12-26T19:34:34.537Z,95.82
2022-12-26T19:37:02.765Z,95.13
2022-12-26T19:39:30.870Z,102.72
2022-12-26T19:41:58.637Z,103.43
2022-12-26T19:44:30.915Z,107.22
2022-12-26T19:47:11.616Z,98.07
2022-12-26T19:49:41.803Z,98.53
2022-12-26T19:52:11.394Z,93.07
2022-12-26T19:54:39.819Z,99.82
2022-12-26T19:57:07.973Z,100.70
2022-12-26T19:59:36.473Z,111.45
2022-12-26T20:02:06.083Z,106.90
2022-12-26T20:04:34.447Z,105.40
2022-12-26T20:07:02.292Z,113.70
2022-12-26T20:09:32.606Z,109.03
2022-12-26T20:12:02.334Z,121.38
2022-12-26T20:14:32.976Z,114.85
2022-12-26T20:17:06.783Z,114.13
2022-12-26T20:19:35.987Z,113.13
2022-12-26T20:22:05.340Z,118.40
2022-12-26T20:24:34.352Z,112.07
2022-12-26T20:27:03.332Z,117.07
2022-12-26T20:29:31.845Z,104.38
2022-12-26T20:32:00.065Z,106.93
2022-12-26T20:34:29.736Z,109.35
2022-12-26T20:36:58.222Z,106.03
2022-12-26T20:39:27.581Z,103.38
2022-12-26T20:41:55.420Z,116.30
2022-12-26T20:44:24.707Z,120.50
2022-12-26T20:46:52.594Z,119.47
2022-12-26T20:49:21.020Z,115.50
2022-12-26T20:51:49.095Z,112.85
2022-12-26T20:54:17.618Z,113.95
2022-12-26T20:56:46.088Z,118.53
2022-12-26T20:59:15.244Z,115.68
2022-12-26T21:01:43.290Z,116.93
2022-12-26T21:04:18.782Z,111.75
2022-12-26T21:06:47.668Z,102.28
2022-12-26T21:09:16.607Z,103.90
2022-12-26T21:11:45.860Z,103.40
2022-12-26T21:14:18.674Z,97.75
2022-12-26T21:16:56.374Z,105.85
2022-12-26T21:19:26.945Z,101.05
2022-12-26T21:21:55.902Z,109.18
2022-12-26T21:24:31.314Z,103.07
2022-12-26T21:27:00.336Z,108.47
2022-12-26T21:29:31.613Z,107.97
2022-12-26T21:32:01.278Z,110.07
2022-12-26T21:34:31.802Z,105.28
2022-12-26T21:37:18.938Z,114.45
2022-12-26T21:39:49.874Z,107.40
2022-12-26T21:42:18.053Z,109.63
2022-12-26T21:44:48.013Z,115.32
2022-12-26T21:47:16.486Z,107.68
2022-12-26T21:49:44.540Z,110.65
2022-12-26T21:52:12.399Z,117.65
2022-12-26T21:54:59.009Z,99.55
2022-12-26T21:57:26.878Z,106.85
2022-12-26T21:59:58.281Z,103.28
2022-12-26T22:02:51.939Z,118.07
2022-12-26T22:05:24.191Z,111.50
2022-12-26T22:07:54.828Z,106.32
2022-12-26T22:10:47.654Z,105.20
2022-12-26T22:13:15.700Z,114.88
2022-12-26T22:16:03.568Z,113.28
2022-12-26T22:18:36.260Z,119.10
2022-12-26T22:21:19.983Z,110.93
2022-12-26T22:23:50.921Z,111.45
2022-12-26T22:26:21.351Z,111.03
2022-12-26T22:28:50.417Z,119.25
2022-12-26T22:31:28.883Z,108.05
2022-12-26T22:33:59.064Z,105.57
2022-12-26T22:36:28.912Z,107.43
2022-12-26T22:38:57.973Z,113.70
2022-12-26T22:41:27.344Z,111.47
2022-12-26T22:43:56.309Z,122.63
2022-12-26T22:46:25.602Z,110.70
2022-12-26T22:48:53.323Z,114.65
2022-12-26T22:51:24.207Z,108.03
2022-12-26T22:53:57.713Z,110.55
2022-12-26T22:58:54.914Z,102.97
2022-12-26T23:01:24.273Z,112.07
2022-12-26T23:03:52.079Z,107.05
2022-12-26T23:06:24.583Z,103.22
2022-12-26T23:08:54.555Z,115.88
2022-12-26T23:11:28.774Z,113.80
2022-12-26T23:14:02.772Z,107.18
2022-12-26T23:16:45.376Z,108.97
2022-12-26T23:19:39.814Z,118.57
2022-12-26T23:22:08.204Z,115.22
2022-12-26T23:24:37.088Z,113.05
2022-12-26T23:27:26.614Z,109.78
2022-12-26T23:30:14.286Z,103.43
2022-12-26T23:32:44.803Z,106.22
2022-12-26T23:35:13.334Z,106.40
2022-12-26T23:37:42.424Z,112.55
2022-12-26T23:40:13.495Z,114.53
2022-12-26T23:42:42.155Z,118.43
2022-12-26T23:45:11.610Z,108.25
2022-12-26T23:47:43.066Z,118.07
2022-12-26T23:50:13.429Z,113.72
2022-12-26T23:52:42.284Z,115.53
2022-12-26T23:55:11.154Z,112.03
2022-12-26T23:57:40.723Z,113.68
